Tiempo atmosférico en la estación meteorológica de Bicorp, València/Valencia (299 m.)



Fecha
DESCASC
Temp. máxima en grados centígrados (hora)
DESCASC
Temp. mínima en grados centígrados (hora)
DESCASC
Temp. media en grados centígrados
DESCASC
Racha de viento máxima en m/sg (hora)
DESCASC
Velocidad máxima media en intervalos de 10 minutos(hora)
DESCASC
Precipitaciones diarias en mm
DESCASC
Precipitaciones de 00:00 a 06:00 en mm
DESCASC
Precipitaciones de 06:00 a 12:00 en mm
DESCASC
Precipitaciones de 12:00 a 18:00 en mm
DESCASC
Precipitaciones de 18:00 a 24:00 en mm
DESCASC
29-10-2020 25.1 (15:00) 9.1 (06:40) 17.1 5 (16:50) 3.06 (16:20) 0 0 0 0 0
28-10-2020 26.3 (15:50) 11.3 (05:40) 18.8 7.22 (13:00) 3.89 (14:10) 0 0 0 0 0
27-10-2020 19.7 (15:20) 8 (00:00) 13.9 11.67 (13:10) 6.11 (12:50) 0 0 0 0 0
26-10-2020 18.7 (00:40) 9.9 (00:00) 14.3 15.28 (01:10) 6.11 (01:00) 0 0 0 0 0
25-10-2020 24 (15:20) 11.9 (00:00) 17.9 12.78 (07:50) 5.83 (06:00) 0 0 0 0 0
24-10-2020 22.1 (16:00) 9.2 (00:00) 15.7 12.78 (13:10) 6.11 (12:50) 0 0 0 0 0
23-10-2020 22.5 (16:20) 12.6 (00:00) 17.6 12.22 (13:10) 5.28 (11:20) 0 0 0 0 0
22-10-2020 19.8 (13:20) 14.8 (00:00) 17.3 3.33 (00:20) 1.39 (05:40) 2.4 0 0 2.4 0
21-10-2020 27.6 (14:50) 14 (00:00) 20.8 6.67 (16:00) 3.61 (16:00) 0 0 0 0 0
20-10-2020 19.7 (16:00) 11.6 (00:00) 15.7 4.17 (16:20) 2.22 (16:20) 0 0 0 0 0
19-10-2020 23.2 (15:30) 11.3 (00:00) 17.3 5.83 (16:10) 3.33 (15:50) 0 0 0 0 0
18-10-2020 23.3 (15:10) 8.4 (00:00) 15.8 6.39 (16:20) 3.33 (16:20) 0 0 0 0 0
17-10-2020 24.2 (16:30) 5.2 (00:00) 14.7 8.89 (14:00) 4.72 (13:40) 0 0 0 0 0
16-10-2020 21.7 (17:00) 7.3 (00:00) 14.5 9.44 (15:30) 5 (14:00) 0 0 0 0 0
15-10-2020 22.6 (16:50) 9.1 (00:00) 15.9 10 (11:40) 3.89 (18:00) 0 0 0 0 0
14-10-2020 22.4 (16:30) 10.6 (00:00) 16.5 8.61 (17:30) 4.72 (17:30) 0 0 0 0 0
13-10-2020 26.9 (16:30) 9.7 (00:00) 18.3 10.28 (17:10) 5.83 (17:10) 0 0 0 0 0
12-10-2020 23.4 (17:00) 9.8 (00:00) 16.6 7.5 (16:30) 3.61 (15:30) 0 0 0 0 0
11-10-2020 24.9 (16:40) 12.5 (00:00) 18.7 6.67 (13:20) 3.33 (18:10) 0 0 0 0 0
10-10-2020 24.8 (16:40) 16.7 (00:00) 20.8 5.56 (17:50) 3.61 (17:50) 0 0 0 0 0
09-10-2020 29.1 (15:50) 13.9 (00:00) 21.5 6.11 (16:40) 3.33 (16:50) 0 0 0 0 0
08-10-2020 27.6 (16:20) 14.1 (00:00) 20.9 5.56 (15:40) 3.06 (15:40) 0 0 0 0 0
07-10-2020 31.1 (16:30) 13.7 (00:00) 22.4 6.39 (15:20) 3.89 (15:20) 0 0 0 0 0
06-10-2020 29.1 (17:30) 10 (00:00) 19.6 9.44 (11:50) 4.44 (11:50) 0 0 0 0 0
05-10-2020 23.8 (16:20) 12.9 (00:00) 18.3 8.89 (13:00) 4.72 (00:30) 0 0 0 0 0
04-10-2020 23 (15:00) 7.1 (00:00) 15 11.39 (10:20) 6.11 (15:40) 0 0 0 0 0
03-10-2020 20.5 (14:50) 11.1 (00:00) 15.8 17.22 (12:30) 7.5 (12:30) 0 0 0 0 0
02-10-2020 26.2 (14:40) 11.7 (00:00) 19 23.61 (14:50) 11.39 (14:20) 3.4 0 0 3.2 0.2
01-10-2020 30.4 (15:50) 14 (04:40) 22.2 11.67 (16:00) 5.56 (17:20) 0 0 0 0 0

Gráficas

Temp. máximas Temp. mínimas Temp. medias Precipitaciones Rachas de viento máximas Velocidades máximas media en intervalos de 10 minutos

Datos horarios

Fecha y hora oficial Temperatura (ºC) Velocidad del viento (km/h) Dirección del viento Racha (km/h) Dirección de racha Precipitación (mm) Presión (hPa) Tendencia (hPa) Humedad (%)
2020-10-30 23:00:00 13.4 3 Sudoeste 13 Oeste 0 -- -- 78
2020-10-30 22:00:00 14.5 4 Oeste 10 Sudoeste 0 -- -- 76
2020-10-30 21:00:00 15.4 6 Oeste 10 Oeste 0 -- -- 74
2020-10-30 20:00:00 16 0 Calma 6 Sudoeste 0 -- -- 69
2020-10-30 19:00:00 17.9 0 Calma 9 Este 0 -- -- 68
2020-10-30 18:00:00 22.2 7 Este 11 Este 0 -- -- 58
2020-10-30 17:00:00 25.7 5 Este 13 Este 0 -- -- 40
2020-10-30 16:00:00 26.4 7 Sudeste 15 Este 0 -- -- 37
2020-10-30 15:00:00 26.9 5 Sudeste 14 Este 0 -- -- 36
2020-10-30 14:00:00 26.2 6 Nordeste 15 Este 0 -- -- 38
2020-10-30 13:00:00 25.9 5 Sudeste 15 Nordeste 0 -- -- 37
2020-10-30 12:00:00 24.5 5 Sudeste 10 Este 0 -- -- 42
2020-10-30 11:00:00 22.1 4 Sudeste 8 Este 0 -- -- 50
2020-10-30 10:00:00 18.3 3 Nordeste 6 Nordeste 0 -- -- 63
2020-10-30 09:00:00 14.4 0 Calma 2 Este 0 -- -- 78
2020-10-30 08:00:00 8.8 0 Calma 2 Sudoeste 0 -- -- 93
2020-10-30 07:00:00 8.7 0 Calma 3 Oeste 0 -- -- 92
2020-10-30 06:00:00 8.9 0 Calma 4 Oeste 0 -- -- 93
2020-10-30 05:00:00 9 0 Calma 5 Norte 0 -- -- 88
2020-10-30 04:00:00 10.7 6 Oeste 9 Oeste 0 -- -- 89
2020-10-30 03:00:00 9.8 0 Calma 6 Sudoeste 0 -- -- 87
2020-10-30 02:00:00 10 0 Calma 4 Oeste 0 -- -- 85
2020-10-30 01:00:00 10.9 0 Calma 4 Oeste 0 -- -- 82
2020-10-30 00:00:00 12.5 3 Oeste 10 Oeste 0 -- -- 80
2020-10-29 23:00:00 12.1 0 Calma 6 Oeste 0 -- -- 77
2020-10-29 22:00:00 13.9 4 Oeste 9 Oeste 0 -- -- 73
2020-10-29 21:00:00 14.5 6 Oeste 11 Oeste 0 -- -- 72
2020-10-29 20:00:00 15.7 9 Oeste 12 Oeste 0 -- -- 67
2020-10-29 19:00:00 16.5 3 Oeste 8 Oeste 0 -- -- 64
2020-10-29 18:00:00 19.6 2 Este 14 Este 0 -- -- 56
2020-10-29 17:00:00 22.7 8 Sudeste 18 Este 0 -- -- 49
2020-10-29 16:00:00 24.6 7 Sudeste 17 Este 0 -- -- 42
2020-10-29 15:00:00 25.1 8 Este 17 Este 0 -- -- 42
2020-10-29 14:00:00 24.2 9 Nordeste 15 Nordeste 0 -- -- 44
2020-10-29 13:00:00 23.8 8 Este 17 Sudeste 0 -- -- 44
2020-10-29 12:00:00 23.2 8 Este 14 Este 0 -- -- 46
2020-10-29 11:00:00 21.9 4 Sudeste 9 Sudeste 0 -- -- 50
2020-10-29 10:00:00 18.8 4 Este 7 Nordeste 0 -- -- 58
2020-10-29 09:00:00 15.7 0 Calma 5 Norte 0 -- -- 71
2020-10-29 08:00:00 9.9 0 Calma 8 Oeste 0 -- -- 89
2020-10-29 07:00:00 9.3 0 Calma 4 Oeste 0 -- -- 89
2020-10-29 06:00:00 9.5 0 Calma 3 Sudoeste 0 -- -- 89
2020-10-29 05:00:00 9.7 0 Calma 8 Norte 0 -- -- 87
2020-10-29 04:00:00 9.8 0 Calma 6 Sudoeste 0 -- -- 87
2020-10-29 03:00:00 10.4 2 Oeste 5 Sudoeste 0 -- -- 84
2020-10-29 02:00:00 11.3 2 Nordeste 8 Oeste 0 -- -- 81
2020-10-29 01:00:00 11.9 3 Sudoeste 10 Oeste 0 -- -- 79
2020-10-29 00:00:00 12.3 3 Oeste 9 Oeste 0 -- -- 78
2020-10-28 23:00:00 13.5 2 Sudoeste 4 Norte 0 -- -- 72
2020-10-28 22:00:00 14.9 0 Calma 6 Norte 0 -- -- 69
2020-10-28 21:00:00 16.2 0 Calma 6 Sudoeste 0 -- -- 65
2020-10-28 20:00:00 18.2 0 Calma 11 Sudoeste 0 -- -- 57
2020-10-28 19:00:00 20 3 Sudoeste 16 Sudoeste 0 -- -- 54
2020-10-28 18:00:00 22.3 4 Sur 16 Sudoeste 0 -- -- 47
2020-10-28 17:00:00 25 8 Sudoeste 18 Oeste 0 -- -- 40
2020-10-28 16:00:00 26.1 8 Sudoeste 17 Sudoeste 0 -- -- 36
2020-10-28 15:00:00 25.7 8 Sur 23 Sur 0 -- -- 36
2020-10-28 14:00:00 24.9 12 Sudoeste 24 Sur 0 -- -- 37
2020-10-28 13:00:00 23.7 13 Sur 26 Sur 0 -- -- 40
2020-10-28 12:00:00 23.5 10 Sudoeste 17 Sudoeste 0 -- -- 39
2020-10-28 11:00:00 21 7 Sur 13 Sudoeste 0 -- -- 44
2020-10-28 10:00:00 17.9 8 Sudoeste 16 Sudoeste 0 -- -- 51
2020-10-28 09:00:00 15.6 4 Sur 13 Sudoeste 0 -- -- 59
2020-10-28 08:00:00 13.2 3 Sudeste 8 Sur 0 -- -- 65
2020-10-28 07:00:00 12.6 3 Norte 16 Sur 0 -- -- 66
2020-10-28 06:00:00 11.6 4 Nordeste 12 Nordeste 0 -- -- 68
2020-10-28 05:00:00 12 5 Nordeste 18 Sur 0 -- -- 66
2020-10-28 04:00:00 12.4 4 Este 17 Nordeste 0 -- -- 64
2020-10-28 03:00:00 12.5 5 Este 12 Sudoeste 0 -- -- 61
2020-10-28 02:00:00 13.1 4 Este 13 Sur 0 -- -- 57
2020-10-28 01:00:00 13.9 5 Sur 14 Este 0 -- -- 53
2020-10-28 00:00:00 14.4 5 Este 16 Este 0 -- -- 50
2020-10-27 23:00:00 14 5 Nordeste 20 Noroeste 0 -- -- 50
2020-10-27 22:00:00 15.6 3 Sudeste 28 Noroeste 0 -- -- 45
2020-10-27 21:00:00 16 10 Oeste 35 Oeste 0 -- -- 44
2020-10-27 20:00:00 16.3 13 Oeste 35 Oeste 0 -- -- 44
2020-10-27 19:00:00 16.6 9 Oeste 28 Sudoeste 0 -- -- 43
2020-10-27 18:00:00 17.3 5 Oeste 28 Oeste 0 -- -- 41
2020-10-27 17:00:00 18.5 8 Sudoeste 30 Sudoeste 0 -- -- 37
2020-10-27 16:00:00 19.6 10 Sudoeste 39 Sudoeste 0 -- -- 34
2020-10-27 15:00:00 19 13 Sudoeste 36 Sudoeste 0 -- -- 36
2020-10-27 14:00:00 18.8 13 Oeste 42 Sudoeste 0 -- -- 37
2020-10-27 13:00:00 18.1 21 Sudoeste 40 Sudoeste 0 -- -- 37
2020-10-27 12:00:00 17.6 17 Sudoeste 33 Sudoeste 0 -- -- 38
2020-10-27 11:00:00 15.4 19 Sudoeste 35 Sudoeste 0 -- -- 46
2020-10-27 10:00:00 14 17 Sudoeste 27 Sudoeste 0 -- -- 50
2020-10-27 09:00:00 11.6 9 Sudoeste 18 Sudoeste 0 -- -- 57
2020-10-27 08:00:00 8.9 9 Sudoeste 18 Sudoeste 0 -- -- 65
2020-10-27 07:00:00 9.2 7 Sudoeste 15 Sudoeste 0 -- -- 63
2020-10-27 06:00:00 8.7 4 Oeste 19 Oeste 0 -- -- 65
2020-10-27 05:00:00 8.3 2 Sudeste 15 Oeste 0 -- -- 66
2020-10-27 04:00:00 10.6 10 Oeste 21 Oeste 0 -- -- 58
2020-10-27 03:00:00 11.3 10 Sudoeste 29 Noroeste 0 -- -- 54
2020-10-27 02:00:00 11.1 7 Sudoeste 26 Sudoeste 0 -- -- 53
2020-10-27 01:00:00 10 3 Norte 14 Norte 0 -- -- 56
2020-10-27 00:00:00 10.1 2 Este 12 Noroeste 0 -- -- 56
2020-10-26 23:00:00 10.7 2 Oeste 12 Sudoeste 0 -- -- 54
2020-10-26 22:00:00 13 7 Sudoeste 27 Oeste 0 -- -- 48
2020-10-26 21:00:00 13.3 10 Sudoeste 35 Oeste 0 -- -- 48
2020-10-26 20:00:00 14 15 Sudoeste 35 Sudoeste 0 -- -- 45
2020-10-26 19:00:00 14.6 16 Sudoeste 31 Oeste 0 -- -- 44
2020-10-26 18:00:00 15.5 12 Sudoeste 30 Sudoeste 0 -- -- 42
2020-10-26 17:00:00 17.6 13 Oeste 37 Oeste 0 -- -- 37
2020-10-26 16:00:00 17.5 11 Sudoeste 30 Sudoeste 0 -- -- 38
2020-10-26 15:00:00 18.5 15 Sudoeste 33 Sudoeste 0 -- -- 37
2020-10-26 14:00:00 18 12 Oeste 32 Sudoeste 0 -- -- 37
2020-10-26 13:00:00 16.5 11 Oeste 43 Oeste 0 -- -- 42
2020-10-26 12:00:00 15.6 11 Noroeste 44 Sudoeste 0 -- -- 45
2020-10-26 11:00:00 16.1 13 Oeste 45 Noroeste 0 -- -- 45
2020-10-26 10:00:00 14.7 12 Oeste 41 Oeste 0 -- -- 52
2020-10-26 09:00:00 13.2 14 Sudoeste 35 Sudoeste 0 -- -- 57
2020-10-26 08:00:00 11.6 5 Oeste 37 Sudoeste 0 -- -- 62
2020-10-26 07:00:00 12.3 14 Sudoeste 30 Oeste 0 -- -- 63
2020-10-26 06:00:00 12.4 13 Sudoeste 25 Sudoeste 0 -- -- 74
2020-10-26 05:00:00 14.3 9 Sudoeste 23 Sudoeste 0 -- -- 66
2020-10-26 04:00:00 14.7 8 Sudoeste 28 Sudoeste 0 -- -- 60
2020-10-26 03:00:00 15.1 8 Sudoeste 18 Sudoeste 0 -- -- 66
2020-10-26 02:00:00 15.5 6 Nordeste 55 Sudoeste 0 -- -- 71
2020-10-26 01:00:00 18.6 22 Oeste 49 Oeste 0 -- -- 56
2020-10-26 00:00:00 16.5 4 Sudeste 15 Nordeste 0 -- -- 59
2020-10-25 23:00:00 15.6 5 Norte 18 Sur 0 -- -- 58
2020-10-25 22:00:00 16.7 4 Sudoeste 18 Sudoeste 0 -- -- 53
2020-10-25 21:00:00 17.1 3 Sudoeste 12 Oeste 0 -- -- 49
2020-10-25 20:00:00 18.4 8 Oeste 23 Sudoeste 0 -- -- 45
2020-10-25 19:00:00 18.5 4 Noroeste 23 Sudoeste 0 -- -- 44
2020-10-25 18:00:00 20.5 10 Sudoeste 24 Sudoeste 0 -- -- 39
2020-10-25 17:00:00 22.4 7 Oeste 30 Oeste 0 -- -- 37
2020-10-25 16:00:00 23 13 Sudoeste 34 Sudoeste 0 -- -- 37
2020-10-25 15:00:00 23.8 13 Sudoeste 37 Sudoeste 0 -- -- 35
2020-10-25 14:00:00 22.9 12 Oeste 42 Oeste 0 -- -- 38
2020-10-25 13:00:00 22.3 10 Sudoeste 31 Sudoeste 0 -- -- 42
2020-10-25 12:00:00 21.2 10 Oeste 42 Sudoeste 0 -- -- 45
2020-10-25 11:00:00 20.5 14 Oeste 32 Sudoeste 0 -- -- 47
2020-10-25 10:00:00 18.9 10 Sudoeste 31 Sudoeste 0 -- -- 52
2020-10-25 09:00:00 17.3 6 Sudoeste 42 Noroeste 0 -- -- 58
2020-10-25 08:00:00 15.7 15 Sudoeste 46 Sudoeste 0 -- -- 63
2020-10-25 07:00:00 14.6 16 Sudoeste 34 Sudoeste 0 -- -- 67
2020-10-25 06:00:00 14.4 21 Sudoeste 41 Sudoeste 0 -- -- 69
2020-10-25 05:00:00 12.3 3 Sudeste 9 Sur 0 -- -- 75
2020-10-25 04:00:00 13.4 6 Sudoeste 20 Sudoeste 0 -- -- 68
2020-10-25 03:00:00 13.4 5 Sudoeste 18 Oeste 0 -- -- 68
2020-10-25 02:00:00 14.9 6 Sudoeste 28 Sudoeste 0 -- -- 62
2020-10-25 01:00:00 14 2 Oeste 10 Noroeste 0 -- -- 63
2020-10-25 00:00:00 12.8 3 Sudoeste 17 Oeste 0 -- -- 66
2020-10-24 23:00:00 14.4 5 Oeste 9 Oeste 0 -- -- 60
2020-10-24 22:00:00 12.3 0 Calma 5 Sudoeste 0 -- -- 69
2020-10-24 21:00:00 13.9 0 Calma 6 Sudoeste 0 -- -- 63
2020-10-24 20:00:00 16.9 2 Sudoeste 17 Sudoeste 0 -- -- 52
2020-10-24 19:00:00 19.6 11 Sudoeste 32 Sudoeste 0 -- -- 45
2020-10-24 18:00:00 21.3 13 Sudoeste 35 Sudoeste 0 -- -- 41
2020-10-24 17:00:00 22 11 Sudoeste 35 Sudoeste 0 -- -- 39
2020-10-24 16:00:00 22.1 9 Sudoeste 32 Oeste 0 -- -- 40
2020-10-24 15:00:00 21.5 10 Oeste 36 Sudoeste 0 -- -- 41
2020-10-24 14:00:00 21.2 12 Sudoeste 46 Sudoeste 0 -- -- 42
2020-10-24 13:00:00 19.9 19 Sudoeste 38 Oeste 0 -- -- 47
2020-10-24 12:00:00 18.6 16 Sudoeste 29 Sudoeste 0 -- -- 51
2020-10-24 11:00:00 17.3 7 Oeste 22 Sudoeste 0 -- -- 58
2020-10-24 10:00:00 14.5 10 Sudoeste 21 Sudoeste 0 -- -- 67
2020-10-24 09:00:00 10.1 2 Sudoeste 6 Oeste 0 -- -- 83
2020-10-24 08:00:00 9.2 2 Norte 10 Oeste 0 -- -- 83
2020-10-24 07:00:00 10.4 5 Oeste 13 Oeste 0 -- -- 78
2020-10-24 06:00:00 10.7 5 Oeste 15 Sudoeste 0 -- -- 76
2020-10-24 05:00:00 11.1 5 Oeste 13 Oeste 0 -- -- 75
2020-10-24 04:00:00 11.3 2 Oeste 16 Oeste 0 -- -- 73
2020-10-24 03:00:00 11.8 4 Oeste 14 Sudoeste 0 -- -- 73
2020-10-24 02:00:00 12.3 3 Noroeste 12 Sudoeste 0 -- -- 70
2020-10-24 01:00:00 11.8 2 Sudoeste 10 Noroeste 0 -- -- 72
2020-10-24 00:00:00 13.7 6 Oeste 23 Sudoeste 0 -- -- 63
2020-10-23 23:00:00 14.8 4 Sudoeste 17 Oeste 0 -- -- 60
2020-10-23 22:00:00 14.9 4 Oeste 13 Nordeste 0 -- -- 58
2020-10-23 21:00:00 14.9 3 Nordeste 9 Nordeste 0 -- -- 57
2020-10-23 20:00:00 17.6 4 Sudoeste 19 Sudoeste 0 -- -- 49
2020-10-23 19:00:00 19.2 6 Oeste 24 Sudoeste 0 -- -- 44
2020-10-23 18:00:00 21.4 9 Oeste 28 Oeste 0 -- -- 39
2020-10-23 17:00:00 22.4 8 Oeste 29 Sudoeste 0 -- -- 38
2020-10-23 16:00:00 22 19 Sudoeste 39 Sudoeste 0 -- -- 38
2020-10-23 15:00:00 22.1 12 Oeste 32 Sudoeste 0 -- -- 40
2020-10-23 14:00:00 22 14 Sudoeste 44 Sudoeste 0 -- -- 41
2020-10-23 13:00:00 21.5 15 Sudoeste 36 Sudoeste 0 -- -- 43
2020-10-23 12:00:00 20 12 Sudoeste 34 Oeste 0 -- -- 52
2020-10-23 11:00:00 19 6 Noroeste 21 Sudoeste 0 -- -- 57
2020-10-23 10:00:00 16.7 7 Norte 17 Nordeste 0 -- -- 71
2020-10-23 09:00:00 15.1 6 Sur 26 Sudoeste 0 -- -- 74
2020-10-23 08:00:00 14.5 6 Sudoeste 19 Oeste 0 -- -- 79
2020-10-23 07:00:00 13.7 5 Sur 18 Sudeste 0 -- -- 88
2020-10-23 06:00:00 12.6 2 Sudoeste 9 Norte 0 -- -- 94
2020-10-23 05:00:00 13 0 Calma 5 Oeste 0 -- -- 94
2020-10-23 04:00:00 13.8 3 Nordeste 5 Nordeste 0 -- -- 93
2020-10-23 03:00:00 14.4 2 Oeste 5 Oeste 0 -- -- 91
2020-10-23 02:00:00 14.5 0 Calma 5 Sudoeste 0 -- -- 92
2020-10-23 01:00:00 15.1 5 Oeste 11 Oeste 0 -- -- 90
2020-10-23 00:00:00 14.8 3 Oeste 10 Oeste 0 -- -- 92
2020-10-22 23:00:00 15.2 2 Sudoeste 9 Sudoeste 0 -- -- 92
2020-10-22 22:00:00 16.2 0 Calma 6 Oeste 0 -- -- 90
2020-10-22 21:00:00 16.7 0 Calma 7 Oeste 0 -- -- 90
2020-10-22 20:00:00 17.2 0 Calma 6 Sudoeste 0 -- -- 91
2020-10-22 19:00:00 18 0 Calma 3 Sudoeste 0 -- -- 92
2020-10-22 18:00:00 18.2 0 Calma 4 Sudeste 0 -- -- 91
2020-10-22 17:00:00 18.2 2 Nordeste 6 Nordeste 0.2 -- -- 91
2020-10-22 16:00:00 18.4 2 Este 6 Norte 1.4 -- -- 90
2020-10-22 15:00:00 18.7 2 Nordeste 3 Nordeste 0.6 -- -- 84
2020-10-22 14:00:00 19 3 Nordeste 8 Sudeste 0.2 -- -- 81
2020-10-22 13:00:00 19.6 4 Nordeste 6 Nordeste 0 -- -- 73
2020-10-22 12:00:00 18.7 0 Calma 4 Sudeste 0 -- -- 69
2020-10-22 11:00:00 17.9 0 Calma 4 Norte 0 -- -- 69
2020-10-22 10:00:00 17.4 0 Calma 6 Oeste 0 -- -- 71
2020-10-22 09:00:00 16.3 0 Calma 4 Sudoeste 0 -- -- 72
2020-10-22 08:00:00 16.5 0 Calma 8 Sudoeste 0 -- -- 70
2020-10-22 07:00:00 17 3 Sudoeste 8 Sudoeste 0 -- -- 69
2020-10-22 06:00:00 17.6 5 Sudoeste 9 Oeste 0 -- -- 67
2020-10-22 05:00:00 17 3 Oeste 6 Sudoeste 0 -- -- 66
2020-10-22 04:00:00 16.9 2 Sudoeste 6 Sudoeste 0 -- -- 64
2020-10-22 03:00:00 17 2 Oeste 5 Oeste 0 -- -- 63
2020-10-22 02:00:00 17.3 0 Calma 7 Sudoeste 0 -- -- 61
2020-10-22 01:00:00 17.6 4 Oeste 12 Sudoeste 0 -- -- 57
2020-10-22 00:00:00 18.2 6 Oeste 12 Sudoeste 0 -- -- 54
2020-10-21 23:00:00 17.8 4 Sudoeste 13 Sudoeste 0 -- -- 57
2020-10-21 22:00:00 18 4 Oeste 10 Sudoeste 0 -- -- 56
2020-10-21 21:00:00 18.8 8 Oeste 10 Oeste 0 -- -- 59
2020-10-21 20:00:00 19.7 0 Calma 5 Nordeste 0 -- -- 65
2020-10-21 19:00:00 21.8 3 Nordeste 7 Este 0 -- -- 60
2020-10-21 18:00:00 23.5 4 Este 12 Sudeste 0 -- -- 53
2020-10-21 17:00:00 24.5 5 Este 19 Este 0 -- -- 51
2020-10-21 16:00:00 25.9 13 Este 24 Nordeste 0 -- -- 49
2020-10-21 15:00:00 27.6 6 Sudeste 22 Este 0 -- -- 37
2020-10-21 14:00:00 27.1 9 Este 21 Este 0 -- -- 39
2020-10-21 13:00:00 25.7 7 Este 17 Este 0 -- -- 40
2020-10-21 12:00:00 24.2 8 Este 14 Este 0 -- -- 49
2020-10-21 11:00:00 21.4 3 Nordeste 7 Este 0 -- -- 57
2020-10-21 10:00:00 16.3 0 Calma 4 Sudoeste 0 -- -- 80
2020-10-21 09:00:00 14.9 4 Sudoeste 8 Oeste 0 -- -- 81
2020-10-21 08:00:00 15.2 4 Sudoeste 8 Oeste 0 -- -- 85
2020-10-21 07:00:00 15.6 2 Oeste 8 Oeste 0 -- -- 86
2020-10-21 06:00:00 15.7 5 Sudoeste 8 Sudoeste 0 -- -- 89
2020-10-21 05:00:00 16 3 Norte 5 Noroeste 0 -- -- 91
2020-10-21 04:00:00 16.6 2 Sur 6 Noroeste 0 -- -- 90
2020-10-21 03:00:00 16.5 3 Sudoeste 4 Sudoeste 0 -- -- 92
2020-10-21 02:00:00 16.5 3 Oeste 5 Oeste 0 -- -- 92
2020-10-21 01:00:00 16.8 3 Oeste 5 Oeste 0 -- -- 93
2020-10-21 00:00:00 17 3 Noroeste 6 Oeste 0 -- -- 93
2020-10-20 23:00:00 17 0 Calma 4 Norte 0 -- -- 91
2020-10-20 22:00:00 17.3 0 Calma 2 Sudeste 0 -- -- 89
2020-10-20 21:00:00 17.6 0 Calma 3 Norte 0 -- -- 88
2020-10-20 20:00:00 17.9 0 Calma 8 Este 0 -- -- 87
2020-10-20 19:00:00 18.5 3 Este 8 Este 0 -- -- 84
2020-10-20 18:00:00 18.6 4 Sudeste 10 Sudeste 0 -- -- 81
2020-10-20 17:00:00 18.9 5 Sudeste 15 Sudeste 0 -- -- 79
2020-10-20 16:00:00 19.7 3 Sur 10 Sur 0 -- -- 72
2020-10-20 15:00:00 18.8 3 Este 7 Sudeste 0 -- -- 75
2020-10-20 14:00:00 17.8 3 Sudeste 6 Sudeste 0 -- -- 78
2020-10-20 13:00:00 16.5 0 Calma 5 Este 0 -- -- 82
2020-10-20 12:00:00 15.3 0 Calma 4 Este 0 -- -- 85
2020-10-20 11:00:00 14.4 3 Sudoeste 5 Sudoeste 0 -- -- 87
2020-10-20 10:00:00 13.6 0 Calma 5 Sudoeste 0 -- -- 90
2020-10-20 09:00:00 12.3 2 Sudoeste 4 Sudoeste 0 -- -- 92
2020-10-20 08:00:00 11.7 0 Calma 6 Sudoeste 0 -- -- 93
2020-10-20 07:00:00 11.8 0 Calma 6 Sudoeste 0 -- -- 92
2020-10-20 06:00:00 12.2 2 Sudoeste 4 Sudoeste 0 -- -- 91
2020-10-20 05:00:00 12.3 0 Calma 12 Sudoeste 0 -- -- 90
2020-10-20 04:00:00 12.2 4 Sudoeste 12 Sudoeste 0 -- -- 90
2020-10-20 03:00:00 12.1 4 Sudoeste 9 Sudoeste 0 -- -- 89
2020-10-20 02:00:00 12.6 4 Oeste 8 Oeste 0 -- -- 88
2020-10-20 01:00:00 13.7 4 Oeste 9 Oeste 0 -- -- 86
2020-10-20 00:00:00 14 5 Oeste 8 Oeste 0 -- -- 85
2020-10-19 23:00:00 15.2 4 Sudoeste 7 Sudoeste 0 -- -- 82
2020-10-19 22:00:00 16.6 2 Oeste 6 Oeste 0 -- -- 80
2020-10-19 21:00:00 16.5 3 Sudoeste 8 Norte 0 -- -- 78
2020-10-19 20:00:00 17.1 4 Norte 9 Nordeste 0 -- -- 79
2020-10-19 19:00:00 18.7 8 Nordeste 18 Nordeste 0 -- -- 72
2020-10-19 18:00:00 21.3 8 Este 18 Este 0 -- -- 61
2020-10-19 17:00:00 22.4 11 Este 21 Nordeste 0 -- -- 54
2020-10-19 16:00:00 22.4 9 Nordeste 21 Nordeste 0 -- -- 51
2020-10-19 15:00:00 22.8 8 Sudeste 20 Este 0 -- -- 46
2020-10-19 14:00:00 22.3 10 Este 18 Este 0 -- -- 46
2020-10-19 13:00:00 20.7 8 Este 17 Sudeste 0 -- -- 52
2020-10-19 12:00:00 20 5 Sudeste 12 Este 0 -- -- 58
2020-10-19 11:00:00 17.3 3 Nordeste 8 Sudeste 0 -- -- 72
2020-10-19 10:00:00 14.4 5 Sudoeste 10 Sudoeste 0 -- -- 76
2020-10-19 09:00:00 11.7 4 Sudoeste 9 Sudoeste 0 -- -- 88
2020-10-19 08:00:00 11.6 4 Sudoeste 8 Sudoeste 0 -- -- 90
2020-10-19 07:00:00 11.6 4 Oeste 8 Sudoeste 0 -- -- 89
2020-10-19 06:00:00 11.9 0 Calma 4 Sudoeste 0 -- -- 86
2020-10-19 05:00:00 13.5 3 Oeste 5 Sudoeste 0 -- -- 83
2020-10-19 04:00:00 13.3 0 Calma 8 Oeste 0 -- -- 82
2020-10-19 03:00:00 13.8 4 Oeste 12 Sudoeste 0 -- -- 81
2020-10-19 02:00:00 13.6 4 Sudoeste 9 Sudoeste 0 -- -- 81
2020-10-19 01:00:00 13 4 Sudoeste 7 Oeste 0 -- -- 84
2020-10-19 00:00:00 12.9 5 Sudoeste 8 Sudoeste 0 -- -- 84
2020-10-18 23:00:00 13 4 Sudoeste 7 Sudoeste 0 -- -- 82
2020-10-18 22:00:00 13.5 4 Sudoeste 8 Oeste 0 -- -- 78
2020-10-18 21:00:00 14 0 Calma 0 Calma 0 -- -- 76
2020-10-18 20:00:00 16.1 0 Calma 8 Sudeste 0 -- -- 72
2020-10-18 19:00:00 18.9 4 Este 16 Sudeste 0 -- -- 64
2020-10-18 18:00:00 21.1 9 Este 19 Sudeste 0 -- -- 55
2020-10-18 17:00:00 22.2 10 Nordeste 23 Nordeste 0 -- -- 50
2020-10-18 16:00:00 23 11 Nordeste 18 Nordeste 0 -- -- 41
2020-10-18 15:00:00 23.1 6 Nordeste 17 Sudeste 0 -- -- 36
2020-10-18 14:00:00 22.9 8 Sudeste 20 Este 0 -- -- 39
2020-10-18 13:00:00 21.7 8 Este 13 Este 0 -- -- 38
2020-10-18 12:00:00 19.2 4 Nordeste 8 Nordeste 0 -- -- 41
2020-10-18 11:00:00 17.8 4 Este 7 Este 0 -- -- 47
2020-10-18 10:00:00 13.5 0 Calma 4 Sudoeste 0 -- -- 55
2020-10-18 09:00:00 9.4 0 Calma 6 Oeste 0 -- -- 87
2020-10-18 08:00:00 8.6 0 Calma 4 Sudoeste 0 -- -- 90
2020-10-18 07:00:00 9.1 3 Sudoeste 6 Sudoeste 0 -- -- 90
2020-10-18 06:00:00 9.1 0 Calma 11 Sudoeste 0 -- -- 82
2020-10-18 05:00:00 9.7 9 Sudoeste 15 Sudoeste 0 -- -- 78
2020-10-18 04:00:00 9.8 3 Sudoeste 11 Sudoeste 0 -- -- 75
2020-10-18 03:00:00 10.6 4 Sudoeste 10 Sudoeste 0 -- -- 64
2020-10-18 02:00:00 10.2 2 Sudoeste 9 Sudoeste 0 -- -- 62
2020-10-18 01:00:00 9.9 4 Sudoeste 12 Oeste 0 -- -- 56
2020-10-18 00:00:00 11.2 7 Sudoeste 12 Oeste 0 -- -- 52
2020-10-17 23:00:00 12.1 6 Oeste 14 Oeste 0 -- -- 48
2020-10-17 22:00:00 12 2 Oeste 9 Oeste 0 -- -- 42
2020-10-17 21:00:00 14 3 Norte 8 Oeste 0 -- -- 38
2020-10-17 20:00:00 17.1 0 Calma 6 Sudoeste 0 -- -- 32
2020-10-17 19:00:00 21.5 3 Oeste 22 Sudoeste 0 -- -- 25
2020-10-17 18:00:00 23.5 7 Sudoeste 23 Sudoeste 0 -- -- 22
2020-10-17 17:00:00 24 8 Oeste 27 Sudoeste 0 -- -- 22
2020-10-17 16:00:00 23.8 5 Oeste 26 Sudoeste 0 -- -- 21
2020-10-17 15:00:00 23.5 9 Sudoeste 28 Oeste 0 -- -- 23
2020-10-17 14:00:00 22.5 12 Sudoeste 32 Sudoeste 0 -- -- 25
2020-10-17 13:00:00 21.4 5 Nordeste 14 Nordeste 0 -- -- 29
2020-10-17 12:00:00 18.9 5 Este 12 Nordeste 0 -- -- 32
2020-10-17 11:00:00 16.3 4 Este 8 Sudeste 0 -- -- 39
2020-10-17 10:00:00 12.6 2 Este 5 Nordeste 0 -- -- 47
2020-10-17 09:00:00 6.3 0 Calma 3 Nordeste 0 -- -- 67
2020-10-17 08:00:00 5.7 2 Oeste 6 Oeste 0 -- -- 66
2020-10-17 07:00:00 6.3 0 Calma 7 Oeste 0 -- -- 65
2020-10-17 06:00:00 6.3 0 Calma 4 Sudoeste 0 -- -- 72
2020-10-17 05:00:00 7.1 3 Sudoeste 9 Sudoeste 0 -- -- 69
2020-10-17 04:00:00 7.8 6 Sudoeste 10 Sudoeste 0 -- -- 58
2020-10-17 03:00:00 8.9 5 Sudoeste 10 Sudoeste 0 -- -- 54
2020-10-17 02:00:00 8.5 0 Calma 12 Sudoeste 0 -- -- 56
2020-10-17 01:00:00 9.7 5 Sudoeste 10 Oeste 0 -- -- 59
2020-10-17 00:00:00 8.9 2 Sudoeste 10 Sudoeste 0 -- -- 46
2020-10-16 23:00:00 10.5 5 Oeste 12 Oeste 0 -- -- 41
2020-10-16 22:00:00 10.4 4 Oeste 12 Oeste 0 -- -- 41
2020-10-16 21:00:00 12.2 0 Calma 9 Oeste 0 -- -- 36
2020-10-16 20:00:00 15 5 Sudoeste 9 Oeste 0 -- -- 30
2020-10-16 19:00:00 18.9 5 Oeste 18 Oeste 0 -- -- 24
2020-10-16 18:00:00 20.8 6 Oeste 19 Sudoeste 0 -- -- 23
2020-10-16 17:00:00 21.7 8 Oeste 31 Noroeste 0 -- -- 21
2020-10-16 16:00:00 21.4 10 Oeste 34 Noroeste 0 -- -- 22
2020-10-16 15:00:00 21 13 Sudoeste 30 Oeste 0 -- -- 22
2020-10-16 14:00:00 19.3 18 Sudoeste 33 Sudoeste 0 -- -- 24
2020-10-16 13:00:00 19.1 8 Sudoeste 19 Sur 0 -- -- 29
2020-10-16 12:00:00 17 7 Oeste 18 Sudoeste 0 -- -- 33
2020-10-16 11:00:00 15 10 Sudoeste 18 Sur 0 -- -- 38
2020-10-16 10:00:00 12.6 4 Sudoeste 13 Sudoeste 0 -- -- 46
2020-10-16 09:00:00 8.3 0 Calma 12 Sudoeste 0 -- -- 60
2020-10-16 08:00:00 8.1 6 Sudoeste 12 Sudoeste 0 -- -- 59
2020-10-16 07:00:00 8 4 Oeste 8 Oeste 0 -- -- 59
2020-10-16 06:00:00 9.1 0 Calma 13 Sudeste 0 -- -- 57
2020-10-16 05:00:00 10.9 3 Noroeste 12 Sudoeste 0 -- -- 53
2020-10-16 04:00:00 10.8 4 Noroeste 12 Oeste 0 -- -- 51
2020-10-16 03:00:00 9.7 4 Oeste 11 Oeste 0 -- -- 55
2020-10-16 02:00:00 10.4 2 Sudoeste 12 Oeste 0 -- -- 52
2020-10-16 01:00:00 12.2 5 Oeste 11 Oeste 0 -- -- 47
2020-10-16 00:00:00 13.2 4 Oeste 9 Oeste 0 -- -- 43
2020-10-15 23:00:00 13.7 5 Sudoeste 8 Sudoeste 0 -- -- 41
2020-10-15 22:00:00 15.6 5 Oeste 9 Oeste 0 -- -- 40
2020-10-15 21:00:00 16.6 2 Sudoeste 5 Norte 0 -- -- 39
2020-10-15 20:00:00 17.5 3 Nordeste 9 Este 0 -- -- 35
2020-10-15 19:00:00 19.3 5 Este 20 Este 0 -- -- 31
2020-10-15 18:00:00 20.9 14 Nordeste 27 Este 0 -- -- 29
2020-10-15 17:00:00 22.1 12 Noroeste 27 Sudoeste 0 -- -- 23
2020-10-15 16:00:00 22 9 Oeste 26 Sur 0 -- -- 25
2020-10-15 15:00:00 21.3 8 Oeste 29 Norte 0 -- -- 26
2020-10-15 14:00:00 20.2 11 Noroeste 26 Oeste 0 -- -- 28
2020-10-15 13:00:00 19.7 9 Oeste 32 Sudoeste 0 -- -- 28
2020-10-15 12:00:00 18.9 9 Oeste 36 Oeste 0 -- -- 28
2020-10-15 11:00:00 17.3 8 Sudoeste 26 Sudoeste 0 -- -- 32
2020-10-15 10:00:00 15.3 7 Sudoeste 26 Sur 0 -- -- 34
2020-10-15 09:00:00 10.2 3 Este 8 Nordeste 0 -- -- 54
2020-10-15 08:00:00 10.5 3 Nordeste 21 Sudoeste 0 -- -- 52
2020-10-15 07:00:00 11.2 4 Sudoeste 13 Sudoeste 0 -- -- 50
2020-10-15 06:00:00 10.6 4 Oeste 8 Oeste 0 -- -- 53
2020-10-15 05:00:00 9.8 0 Calma 6 Sudoeste 0 -- -- 54
2020-10-15 04:00:00 11.5 0 Calma 19 Sudoeste 0 -- -- 50
2020-10-15 03:00:00 11.7 2 Norte 6 Oeste 0 -- -- 48
2020-10-15 02:00:00 12 3 Sudoeste 12 Oeste 0 -- -- 47
2020-10-15 01:00:00 12.9 0 Calma 11 Norte 0 -- -- 44
2020-10-15 00:00:00 14.2 4 Noroeste 10 Noroeste 0 -- -- 39
2020-10-14 23:00:00 14.9 4 Noroeste 8 Norte 0 -- -- 37
2020-10-14 22:00:00 15.1 3 Noroeste 10 Noroeste 0 -- -- 37
2020-10-14 21:00:00 15.4 5 Noroeste 9 Noroeste 0 -- -- 64
2020-10-14 20:00:00 16.3 4 Norte 6 Norte 0 -- -- 64
2020-10-14 19:00:00 17.3 2 Norte 15 Este 0 -- -- 63
2020-10-14 18:00:00 17.9 8 Este 31 Este 0 -- -- 59
2020-10-14 17:00:00 21.4 5 Norte 19 Sudoeste 0 -- -- 28
2020-10-14 16:00:00 21 7 Noroeste 26 Noroeste 0 -- -- 27
2020-10-14 15:00:00 20.7 10 Nordeste 17 Este 0 -- -- 45
2020-10-14 14:00:00 19.4 11 Nordeste 22 Este 0 -- -- 58
2020-10-14 13:00:00 21 9 Nordeste 20 Nordeste 0 -- -- 49
2020-10-14 12:00:00 20 4 Nordeste 12 Este 0 -- -- 46
2020-10-14 11:00:00 18 6 Este 13 Nordeste 0 -- -- 52
2020-10-14 10:00:00 14 4 Norte 8 Norte 0 -- -- 69
2020-10-14 09:00:00 11.5 4 Nordeste 8 Nordeste 0 -- -- 79
2020-10-14 08:00:00 10.9 2 Sudoeste 5 Norte 0 -- -- 81
2020-10-14 07:00:00 11.7 2 Oeste 8 Oeste 0 -- -- 77
2020-10-14 06:00:00 12.4 3 Sudoeste 12 Sudoeste 0 -- -- 81
2020-10-14 05:00:00 13.2 5 Sudoeste 9 Sudoeste 0 -- -- 77
2020-10-14 04:00:00 14.2 4 Oeste 9 Sudoeste 0 -- -- 74
2020-10-14 03:00:00 14 2 Sudoeste 5 Sudoeste 0 -- -- 65
2020-10-14 02:00:00 14.3 0 Calma 8 Oeste 0 -- -- 58
2020-10-14 01:00:00 14 4 Oeste 9 Norte 0 -- -- 57
2020-10-14 00:00:00 14.9 0 Calma 6 Sudoeste 0 -- -- 54
2020-10-13 23:00:00 16.2 0 Calma 6 Norte 0 -- -- 51
2020-10-13 22:00:00 18.2 3 Sudoeste 14 Oeste 0 -- -- 46
2020-10-13 21:00:00 19.9 5 Oeste 13 Oeste 0 -- -- 43
2020-10-13 20:00:00 21.7 4 Oeste 16 Sudoeste 0 -- -- 38
2020-10-13 19:00:00 24.2 12 Sudoeste 25 Sudoeste 0 -- -- 34
2020-10-13 18:00:00 25.8 11 Oeste 37 Sudoeste 0 -- -- 31
2020-10-13 17:00:00 26.8 17 Sudoeste 36 Sudoeste 0 -- -- 30
2020-10-13 16:00:00 26.5 13 Sudoeste 32 Sudoeste 0 -- -- 31
2020-10-13 15:00:00 26.7 11 Sudoeste 28 Noroeste 0 -- -- 31
2020-10-13 14:00:00 25.5 10 Noroeste 31 Norte 0 -- -- 33
2020-10-13 13:00:00 24.8 9 Noroeste 34 Sudoeste 0 -- -- 35
2020-10-13 12:00:00 23.4 11 Oeste 28 Oeste 0 -- -- 35
2020-10-13 11:00:00 -- -- -- -- -- -- -- -- --
2020-10-13 10:00:00 -- -- -- -- -- -- -- -- --
2020-10-13 09:00:00 14.7 6 Oeste 34 Oeste 0 -- -- 50
2020-10-13 08:00:00 11.3 4 Norte 11 Nordeste 0 -- -- 59
2020-10-13 07:00:00 11.9 5 Norte 12 Nordeste 0 -- -- 55
2020-10-13 06:00:00 11.5 6 Nordeste 12 Nordeste 0 -- -- 56
2020-10-13 05:00:00 10.9 0 Calma 9 Nordeste 0 -- -- 56
2020-10-13 04:00:00 -- -- -- -- -- -- -- -- --
2020-10-13 03:00:00 9.8 2 Nordeste 7 Norte 0 -- -- 58
2020-10-13 02:00:00 12.1 5 Noroeste 13 Sudoeste 0 -- -- 49
2020-10-13 01:00:00 -- -- -- -- -- -- -- -- --
2020-10-13 00:00:00 12.9 9 Sudoeste 14 Sudoeste 0 -- -- 47
2020-10-12 23:00:00 13.7 8 Sudoeste 13 Sudoeste 0 -- -- 45
2020-10-12 22:00:00 14.9 8 Sudoeste 13 Sudoeste 0 -- -- 41
2020-10-12 21:00:00 14.7 5 Sudoeste 9 Sudoeste 0 -- -- 42
2020-10-12 20:00:00 18 5 Sudoeste 14 Norte 0 -- -- 35
2020-10-12 19:00:00 21.3 4 Noroeste 19 Oeste 0 -- -- 28
2020-10-12 18:00:00 -- -- -- -- -- -- -- -- --
2020-10-12 17:00:00 23.4 7 Oeste 27 Sudoeste 0 -- -- 24
2020-10-12 16:00:00 23.3 5 Sudoeste 22 Sudoeste 0 -- -- 27
2020-10-12 15:00:00 22.9 8 Oeste 19 Sudoeste 0 -- -- 27
2020-10-12 14:00:00 21.6 7 Sur 15 Sudoeste 0 -- -- 29
2020-10-12 13:00:00 21.1 6 Sur 17 Sudoeste 0 -- -- 30
2020-10-12 12:00:00 19.8 6 Sur 18 Sudoeste 0 -- -- 33
2020-10-12 11:00:00 17.8 6 Noroeste 19 Sudoeste 0 -- -- 38
2020-10-12 10:00:00 16.7 4 Sudoeste 17 Noroeste 0 -- -- 41
2020-10-12 09:00:00 12.3 3 Sudeste 10 Nordeste 0 -- -- 53
2020-10-12 08:00:00 10.4 4 Sudoeste 17 Sudoeste 0 -- -- 57
2020-10-12 07:00:00 10.4 3 Norte 15 Oeste 0 -- -- 56
2020-10-12 06:00:00 10.3 4 Sudoeste 13 Sudoeste 0 -- -- 57
2020-10-12 05:00:00 11.5 10 Sudoeste 17 Sudoeste 0 -- -- 53
2020-10-12 04:00:00 -- -- -- -- -- -- -- -- --
2020-10-12 03:00:00 12.3 3 Sudoeste 16 Sur 0 -- -- 49
2020-10-12 02:00:00 12.8 4 Sudoeste 12 Sudoeste 0 -- -- 47
2020-10-12 01:00:00 13.4 3 Oeste 11 Noroeste 0 -- -- 44
2020-10-12 00:00:00 13.9 5 Noroeste 13 Noroeste 0 -- -- 43
2020-10-11 23:00:00 13.4 5 Oeste 13 Sudoeste 0 -- -- 46
2020-10-11 22:00:00 12.7 6 Sudoeste 9 Oeste 0 -- -- 55
2020-10-11 21:00:00 -- -- -- -- -- -- -- -- --
2020-10-11 20:00:00 -- -- -- -- -- -- -- -- --
2020-10-11 19:00:00 19.4 8 Este 19 Este 0 -- -- 42
2020-10-11 18:00:00 21.8 10 Este 22 Sudeste 0 -- -- 38
2020-10-11 17:00:00 23.3 10 Este 23 Norte 0 -- -- 34
2020-10-11 16:00:00 24 9 Oeste 23 Norte 0 -- -- 22
2020-10-11 15:00:00 24 7 Norte 19 Sudoeste 0 -- -- 22
2020-10-11 14:00:00 23.3 6 Norte 24 Sur 0 -- -- 31
2020-10-11 13:00:00 21.3 7 Este 17 Este 0 -- -- 40
2020-10-11 12:00:00 20.1 6 Nordeste 14 Este 0 -- -- 41
2020-10-11 11:00:00 19.3 6 Sudeste 14 Este 0 -- -- 41
2020-10-11 10:00:00 16.3 4 Sur 8 Sur 0 -- -- 59
2020-10-11 09:00:00 15.6 0 Calma 10 Nordeste 0 -- -- 63
2020-10-11 08:00:00 16.1 6 Sur 12 Sur 0 -- -- 64
2020-10-11 07:00:00 16.7 5 Sudeste 8 Este 0 -- -- 76
2020-10-11 06:00:00 17 5 Sudoeste 12 Sudoeste 0 -- -- 80
2020-10-11 05:00:00 17.6 4 Sudoeste 8 Sudoeste 0 -- -- 79
2020-10-11 04:00:00 18 6 Este 15 Este 0 -- -- 82
2020-10-11 03:00:00 18 0 Calma 3 Sudoeste 0 -- -- 82
2020-10-11 02:00:00 17.8 0 Calma 2 Sudoeste 0 -- -- 82
2020-10-11 01:00:00 18.3 0 Calma 6 Oeste -- -- -- 81
2020-10-11 00:00:00 18.6 3 Sur 4 Sur 0 -- -- 81
2020-10-10 23:00:00 19.1 0 Calma 4 Oeste 0 -- -- 80
2020-10-10 22:00:00 19.1 2 Sudoeste 5 Oeste 0 -- -- 81
2020-10-10 21:00:00 19.9 0 Calma 6 Nordeste 0 -- -- 79
2020-10-10 20:00:00 20.8 3 Nordeste 13 Este 0 -- -- 74
2020-10-10 19:00:00 21.8 7 Este 18 Este 0 -- -- 71
2020-10-10 18:00:00 22.7 10 Nordeste 20 Nordeste 0 -- -- 68
2020-10-10 17:00:00 24.7 6 Sudeste 18 Sudeste 0 -- -- 57
2020-10-10 16:00:00 24 8 Este 16 Este 0 -- -- 58
2020-10-10 15:00:00 23.6 7 Este 16 Este 0 -- -- 58
2020-10-10 14:00:00 22.5 4 Nordeste 9 Nordeste 0 -- -- 62
2020-10-10 13:00:00 21.8 3 Nordeste 8 Este 0 -- -- 67
2020-10-10 12:00:00 21.1 4 Sudeste 9 Este 0 -- -- 68
2020-10-10 11:00:00 20.7 3 Este 7 Este 0 -- -- 72
2020-10-10 10:00:00 19.1 2 Sudoeste 8 Sudoeste 0 -- -- 78
2020-10-10 09:00:00 18.3 3 Sudoeste 9 Sudoeste 0 -- -- 80
2020-10-10 08:00:00 18.3 4 Sudoeste 6 Sudoeste 0 -- -- 81
2020-10-10 07:00:00 18.3 0 Calma 6 Sudoeste 0 -- -- 81
2020-10-10 06:00:00 18.2 0 Calma 4 Este 0 -- -- 81
2020-10-10 05:00:00 18.1 0 Calma 6 Sudoeste 0 -- -- 82
2020-10-10 04:00:00 18.2 0 Calma 7 Sudoeste 0 -- -- 81
2020-10-10 03:00:00 17.9 6 Sudoeste 9 Sudoeste 0 -- -- 81
2020-10-10 02:00:00 17.4 4 Sudoeste 10 Sudoeste 0 -- -- 82
2020-10-10 01:00:00 16.8 4 Sudoeste 8 Oeste 0 -- -- 84
2020-10-10 00:00:00 17 5 Oeste 8 Oeste 0 -- -- 84
2020-10-09 23:00:00 17.6 0 Calma 6 Oeste 0 -- -- 79
2020-10-09 22:00:00 18.5 2 Oeste 6 Noroeste 0 -- -- 78
2020-10-09 21:00:00 20.1 3 Oeste 6 Oeste 0 -- -- 74
2020-10-09 20:00:00 21.1 2 Nordeste 15 Este 0 -- -- 70
2020-10-09 19:00:00 23.5 8 Nordeste 15 Este 0 -- -- 63
2020-10-09 18:00:00 26.3 7 Este 19 Sudeste 0 -- -- 53
2020-10-09 17:00:00 28 11 Este 22 Sur 0 -- -- 49
2020-10-09 16:00:00 28.9 11 Este 18 Este 0 -- -- 43
2020-10-09 15:00:00 28.5 10 Sudeste 17 Sur 0 -- -- 43
2020-10-09 14:00:00 28.3 7 Este 16 Nordeste 0 -- -- 44
2020-10-09 13:00:00 26.7 6 Este 11 Nordeste 0 -- -- 49
2020-10-09 12:00:00 24.3 5 Nordeste 8 Nordeste 0 -- -- 58
2020-10-09 11:00:00 20.9 4 Nordeste 10 Este 0 -- -- 70
2020-10-09 10:00:00 18.4 4 Nordeste 6 Este 0 -- -- 80
2020-10-09 09:00:00 15.3 0 Calma 8 Oeste 0 -- -- 94
2020-10-09 08:00:00 14.1 0 Calma 7 Sudoeste 0 -- -- 93
2020-10-09 07:00:00 14.1 3 Sudoeste 9 Sudoeste 0 -- -- 92
2020-10-09 06:00:00 14.5 3 Oeste 6 Oeste 0 -- -- 93
2020-10-09 05:00:00 14.8 3 Sudoeste 6 Sudoeste 0 -- -- 92
2020-10-09 04:00:00 15.1 3 Sudoeste 6 Oeste 0 -- -- 90
2020-10-09 03:00:00 15.6 4 Oeste 9 Oeste 0 -- -- 89
2020-10-09 02:00:00 16.1 5 Oeste 8 Oeste 0 -- -- 88
2020-10-09 01:00:00 16.6 2 Norte 7 Oeste 0 -- -- 86
2020-10-09 00:00:00 17.5 2 Noroeste 9 Sudoeste 0 -- -- 84
2020-10-08 23:00:00 18 4 Sudoeste 9 Oeste 0 -- -- 81
2020-10-08 22:00:00 18.8 4 Oeste 8 Oeste 0 -- -- 78
2020-10-08 21:00:00 19.4 0 Calma 5 Norte 0 -- -- 75
2020-10-08 20:00:00 21.2 5 Norte 13 Nordeste 0 -- -- 73
2020-10-08 19:00:00 23.8 8 Nordeste 14 Este 0 -- -- 64
2020-10-08 18:00:00 26.1 8 Este 20 Este 0 -- -- 56
2020-10-08 17:00:00 27.1 9 Nordeste 19 Nordeste 0 -- -- 51
2020-10-08 16:00:00 27.5 8 Este 20 Este 0 -- -- 47
2020-10-08 15:00:00 26.8 7 Este 20 Este 0 -- -- 48
2020-10-08 14:00:00 26.2 8 Sudeste 17 Este 0 -- -- 50
2020-10-08 13:00:00 25.6 9 Sudeste 17 Este 0 -- -- 53
2020-10-08 12:00:00 23.7 7 Sudeste 13 Este 0 -- -- 57
2020-10-08 11:00:00 21.8 5 Nordeste 9 Este 0 -- -- 68
2020-10-08 10:00:00 18.5 2 Sur 11 Sudoeste 0 -- -- 76
2020-10-08 09:00:00 15.8 5 Sudoeste 9 Sudoeste 0 -- -- 82
2020-10-08 08:00:00 15.1 4 Oeste 9 Sudoeste 0 -- -- 81
2020-10-08 07:00:00 14.4 5 Sudoeste 8 Sudoeste 0 -- -- 83
2020-10-08 06:00:00 14.4 4 Sudoeste 8 Sudoeste 0 -- -- 81
2020-10-08 05:00:00 14.9 4 Sudoeste 10 Sudoeste 0 -- -- 76
2020-10-08 04:00:00 15.5 6 Sudoeste 12 Sudoeste 0 -- -- 71
2020-10-08 03:00:00 15.8 4 Sudoeste 8 Oeste 0 -- -- 68
2020-10-08 02:00:00 16.3 6 Sudoeste 11 Oeste 0 -- -- 65
2020-10-08 01:00:00 17.4 6 Sudoeste 9 Oeste 0 -- -- 62
2020-10-08 00:00:00 17.5 4 Oeste 10 Oeste 0 -- -- 61
2020-10-07 23:00:00 18.9 6 Sudoeste 10 Sudoeste 0 -- -- 57
2020-10-07 22:00:00 20.3 6 Oeste 12 Sudoeste 0 -- -- 53
2020-10-07 21:00:00 21.8 7 Oeste 11 Oeste 0 -- -- 49
2020-10-07 20:00:00 23.7 0 Calma 8 Norte 0 -- -- 45
2020-10-07 19:00:00 27.2 5 Este 21 Nordeste 0 -- -- 38
2020-10-07 18:00:00 30 10 Este 21 Este 0 -- -- 33
2020-10-07 17:00:00 30.8 13 Este 22 Este 0 -- -- 28
2020-10-07 16:00:00 30.5 11 Nordeste 23 Nordeste 0 -- -- 28
2020-10-07 15:00:00 30.6 12 Este 21 Este 0 -- -- 29
2020-10-07 14:00:00 29.8 4 Este 17 Este 0 -- -- 28
2020-10-07 13:00:00 28.6 5 Este 17 Nordeste 0 -- -- 29
2020-10-07 12:00:00 26.6 7 Norte 20 Norte 0 -- -- 33
2020-10-07 11:00:00 25.4 6 Sur 13 Sudoeste 0 -- -- 44
2020-10-07 10:00:00 21.1 3 Sudoeste 6 Norte 0 -- -- 55
2020-10-07 09:00:00 16.7 0 Calma 13 Oeste 0 -- -- 69
2020-10-07 08:00:00 15 2 Nordeste 12 Noroeste 0 -- -- 72
2020-10-07 07:00:00 13.8 3 Norte 6 Norte 0 -- -- 76
2020-10-07 06:00:00 14.1 0 Calma 9 Oeste 0 -- -- 75
2020-10-07 05:00:00 14.3 0 Calma 6 Sudoeste 0 -- -- 74
2020-10-07 04:00:00 15.7 2 Oeste 7 Norte 0 -- -- 69
2020-10-07 03:00:00 15.2 0 Calma 5 Nordeste 0 -- -- 70
2020-10-07 02:00:00 16.2 0 Calma 6 Noroeste 0 -- -- 66
2020-10-07 01:00:00 17.8 4 Oeste 13 Noroeste 0 -- -- 61
2020-10-07 00:00:00 17.9 2 Oeste 8 Norte 0 -- -- 61
2020-10-06 23:00:00 18.9 2 Noroeste 6 Sudoeste 0 -- -- 57
2020-10-06 22:00:00 20.8 3 Nordeste 10 Oeste 0 -- -- 51
2020-10-06 21:00:00 21.3 2 Oeste 5 Sudoeste 0 -- -- 50
2020-10-06 20:00:00 23.7 2 Oeste 10 Sudeste 0 -- -- 44
2020-10-06 19:00:00 26.7 4 Sudoeste 22 Sudoeste 0 -- -- 37
2020-10-06 18:00:00 28.5 10 Sudoeste 28 Sudoeste 0 -- -- 34
2020-10-06 17:00:00 28.7 13 Sudoeste 29 Sudoeste 0 -- -- 33
2020-10-06 16:00:00 28.4 11 Sudoeste 21 Norte 0 -- -- 33
2020-10-06 15:00:00 28.5 8 Sudoeste 22 Sudoeste 0 -- -- 33
2020-10-06 14:00:00 27.2 10 Sudoeste 29 Sudoeste 0 -- -- 34
2020-10-06 13:00:00 26.5 10 Sudoeste 29 Sur 0 -- -- 33
2020-10-06 12:00:00 23.9 16 Sudoeste 34 Sudoeste 0 -- -- 38
2020-10-06 11:00:00 22.5 7 Sudoeste 23 Sur 0 -- -- 38
2020-10-06 10:00:00 18.9 4 Sudeste 10 Sur 0 -- -- 42
2020-10-06 09:00:00 14 5 Nordeste 15 Sudoeste 0 -- -- 55
2020-10-06 08:00:00 11.8 3 Nordeste 10 Nordeste 0 -- -- 58
2020-10-06 07:00:00 10.5 0 Calma 9 Oeste 0 -- -- 63
2020-10-06 06:00:00 10 0 Calma 6 Sudoeste 0 -- -- 64
2020-10-06 05:00:00 10.3 0 Calma 5 Noroeste 0 -- -- 62
2020-10-06 04:00:00 11.1 0 Calma 5 Norte 0 -- -- 59
2020-10-06 03:00:00 12.7 0 Calma 15 Oeste 0 -- -- 54
2020-10-06 02:00:00 14.1 2 Sudoeste 7 Sudoeste 0 -- -- 49
2020-10-06 01:00:00 16.4 3 Noroeste 12 Oeste 0 -- -- 43
2020-10-06 00:00:00 16.7 2 Oeste 23 Sudoeste 0 -- -- 42
2020-10-05 23:00:00 17.5 5 Oeste 21 Sudoeste 0 -- -- 40
2020-10-05 22:00:00 18.1 6 Oeste 22 Sur 0 -- -- 38
2020-10-05 21:00:00 19.1 9 Sudoeste 20 Oeste 0 -- -- 35
2020-10-05 20:00:00 20.1 10 Sudoeste 23 Sudoeste 0 -- -- 31
2020-10-05 19:00:00 21.9 13 Sudoeste 30 Sudoeste 0 -- -- 30
2020-10-05 18:00:00 23.3 14 Sudoeste 30 Sudoeste 0 -- -- 29
2020-10-05 17:00:00 23.7 13 Sudoeste 27 Oeste 0 -- -- 29
2020-10-05 16:00:00 23.3 9 Oeste 23 Oeste 0 -- -- 29
2020-10-05 15:00:00 23 12 Oeste 31 Noroeste 0 -- -- 29
2020-10-05 14:00:00 21.9 9 Noroeste 31 Oeste 0 -- -- 32
2020-10-05 13:00:00 21.1 12 Noroeste 32 Noroeste 0 -- -- 35
2020-10-05 12:00:00 20.6 7 Sudoeste 18 Norte 0 -- -- 40
2020-10-05 11:00:00 19 6 Noroeste 16 Sudoeste 0 -- -- 43
2020-10-05 10:00:00 17.2 8 Oeste 22 Oeste 0 -- -- 51
2020-10-05 09:00:00 14.6 6 Sudoeste 17 Sudoeste 0 -- -- 58
2020-10-05 08:00:00 14.1 7 Oeste 19 Oeste 0 -- -- 61
2020-10-05 07:00:00 13.7 4 Oeste 18 Sudoeste 0 -- -- 62
2020-10-05 06:00:00 13.7 9 Sudoeste 18 Sudoeste 0 -- -- 63
2020-10-05 05:00:00 13.9 3 Oeste 17 Sudoeste 0 -- -- 64
2020-10-05 04:00:00 13.5 3 Sudoeste 12 Sudoeste 0 -- -- 67
2020-10-05 03:00:00 15.2 8 Sudoeste 18 Sudoeste 0 -- -- 61
2020-10-05 02:00:00 15.9 11 Sudoeste 21 Oeste 0 -- -- 58
2020-10-05 01:00:00 16.1 10 Sudoeste 30 Sudoeste 0 -- -- 59
2020-10-05 00:00:00 16 11 Sudoeste 26 Sudoeste 0 -- -- 62
2020-10-04 23:00:00 15.9 8 Sudoeste 18 Sudoeste 0 -- -- 63
2020-10-04 22:00:00 16.4 6 Sudoeste 14 Sudoeste 0 -- -- 60
2020-10-04 21:00:00 17.4 3 Sudoeste 20 Oeste 0 -- -- 54
2020-10-04 20:00:00 18.9 9 Sudoeste 27 Sudoeste 0 -- -- 50
2020-10-04 19:00:00 19.9 8 Sudoeste 31 Oeste 0 -- -- 46
2020-10-04 18:00:00 21.1 11 Sudoeste 40 Sudoeste 0 -- -- 44
2020-10-04 17:00:00 21.5 9 Sudoeste 33 Sudoeste 0 -- -- 42
2020-10-04 16:00:00 21.5 10 Oeste 40 Sudoeste 0 -- -- 42
2020-10-04 15:00:00 23 16 Sudoeste 34 Sudoeste 0 -- -- 35
2020-10-04 14:00:00 21.8 17 Sudoeste 41 Sudoeste 0 -- -- 37
2020-10-04 13:00:00 21.6 7 Sudoeste 25 Sudoeste 0 -- -- 37
2020-10-04 12:00:00 20 8 Sudoeste 39 Sudoeste 0 -- -- 40
2020-10-04 11:00:00 16.7 14 Oeste 41 Sudoeste 0 -- -- 50
2020-10-04 10:00:00 15 16 Sudoeste 37 Oeste 0 -- -- 55
2020-10-04 09:00:00 8.9 2 Sudeste 8 Sudoeste 0 -- -- 74
2020-10-04 08:00:00 7.1 2 Nordeste 5 Sudoeste 0 -- -- 79
2020-10-04 07:00:00 8.5 2 Sudoeste 10 Oeste 0 -- -- 73
2020-10-04 06:00:00 8.9 6 Oeste 11 Oeste 0 -- -- 72
2020-10-04 05:00:00 10.4 4 Oeste 9 Oeste 0 -- -- 65
2020-10-04 04:00:00 11.5 4 Oeste 17 Sudoeste 0 -- -- 61
2020-10-04 03:00:00 13.8 10 Sudoeste 21 Sudoeste 0 -- -- 53
2020-10-04 02:00:00 13.4 7 Sudoeste 20 Sudoeste 0 -- -- 55
2020-10-04 01:00:00 14.3 7 Sudoeste 22 Sudoeste 0 -- -- 52
2020-10-04 00:00:00 14.7 10 Sudoeste 19 Sudoeste 0 -- -- 49
2020-10-03 23:00:00 15.6 9 Sudoeste 31 Sudoeste 0 -- -- 45
2020-10-03 22:00:00 16 8 Sudoeste 16 Sudoeste 0 -- -- 43
2020-10-03 21:00:00 16.5 8 Sudoeste 26 Sudoeste 0 -- -- 45
2020-10-03 20:00:00 17.2 7 Sudoeste 23 Sudoeste 0 -- -- 43
2020-10-03 19:00:00 18.6 15 Sudoeste 40 Sudoeste 0 -- -- 40
2020-10-03 18:00:00 19.8 18 Sudoeste 45 Sudoeste 0 -- -- 38
2020-10-03 17:00:00 20.2 13 Sudoeste 45 Sudoeste 0 -- -- 37
2020-10-03 16:00:00 19.8 21 Sudoeste 53 Sudoeste 0 -- -- 37
2020-10-03 15:00:00 20 23 Sudoeste 49 Sudoeste 0 -- -- 35
2020-10-03 14:00:00 19.4 13 Oeste 43 Oeste 0 -- -- 36
2020-10-03 13:00:00 17.6 24 Sudoeste 62 Sudoeste 0 -- -- 41
2020-10-03 12:00:00 16.9 17 Sudoeste 49 Oeste 0 -- -- 46
2020-10-03 11:00:00 15.1 17 Sudoeste 39 Sudoeste 0 -- -- 50
2020-10-03 10:00:00 13.7 11 Sudoeste 36 Sudoeste 0 -- -- 54
2020-10-03 09:00:00 11.5 8 Este 37 Sudoeste 0 -- -- 60
2020-10-03 08:00:00 11.3 8 Norte 40 Oeste 0 -- -- 60
2020-10-03 07:00:00 11.5 8 Sudeste 39 Noroeste 0 -- -- 58
2020-10-03 06:00:00 11.5 7 Sudoeste 36 Sudoeste 0 -- -- 58
2020-10-03 05:00:00 11.9 14 Sudoeste 42 Oeste 0 -- -- 57
2020-10-03 04:00:00 12.2 12 Sudoeste 32 Sudoeste 0 -- -- 57
2020-10-03 03:00:00 12.6 9 Oeste 40 Oeste 0 -- -- 55
2020-10-03 02:00:00 12.7 14 Sudoeste 31 Sudoeste 0 -- -- 52
2020-10-03 01:00:00 12.8 10 Sudoeste 20 Oeste 0 -- -- 51
2020-10-03 00:00:00 13.5 11 Sudoeste 30 Sudoeste 0 -- -- 49
2020-10-02 23:00:00 14 12 Sudoeste 35 Sudoeste 0 -- -- 50
2020-10-02 22:00:00 13.6 15 Sudoeste 31 Sudoeste 0 -- -- 58
2020-10-02 21:00:00 12.1 8 Sudoeste 22 Sudoeste 0 -- -- 71
2020-10-02 20:00:00 12.4 8 Sudoeste 23 Sudoeste 0 -- -- 71
2020-10-02 19:00:00 12.3 7 Sudoeste 23 Sudoeste 0.2 -- -- 77
2020-10-02 18:00:00 12 6 Sudoeste 43 Noroeste 1 -- -- 78
2020-10-02 17:00:00 14.1 12 Noroeste 33 Norte 1.2 -- -- 73
2020-10-02 16:00:00 18.1 10 Oeste 79 Sudoeste 1 -- -- 71
2020-10-02 15:00:00 25 41 Sudoeste 85 Sudoeste 0 -- -- 42
2020-10-02 14:00:00 25.4 39 Sudoeste 80 Sudoeste 0 -- -- 41
2020-10-02 13:00:00 23.9 25 Sudoeste 60 Oeste -- -- -- 45
2020-10-02 12:00:00 21.6 19 Sudoeste 53 Sudoeste 0 -- -- 50
2020-10-02 11:00:00 20.4 12 Sudoeste 39 Sudoeste 0 -- -- 53
2020-10-02 10:00:00 19.2 4 Este 20 Sudoeste 0 -- -- 56
2020-10-02 09:00:00 19.2 5 Sudoeste 37 Sudoeste 0 -- -- 52
2020-10-02 08:00:00 19.7 20 Sudoeste 51 Sudoeste 0 -- -- 49
2020-10-02 07:00:00 19.4 10 Sudoeste 30 Sudoeste 0 -- -- 52
2020-10-02 06:00:00 19.2 12 Sudoeste 40 Sudoeste 0 -- -- 55
2020-10-02 05:00:00 19.8 20 Sudoeste 45 Sudoeste 0 -- -- 53
2020-10-02 04:00:00 20.3 23 Sudoeste 58 Sudoeste 0 -- -- 52
2020-10-02 03:00:00 21 28 Sudoeste 50 Sudoeste 0 -- -- 51
2020-10-02 02:00:00 21.6 21 Sudoeste 41 Sudoeste 0 -- -- 49
2020-10-02 01:00:00 22.4 10 Sudoeste 40 Sudoeste 0 -- -- 45
2020-10-02 00:00:00 23 12 Sudoeste 32 Sudoeste 0 -- -- 43
2020-10-01 23:00:00 23.3 3 Oeste 29 Sudoeste 0 -- -- 41
2020-10-01 22:00:00 23.9 5 Sudoeste 25 Sudoeste 0 -- -- 38
2020-10-01 21:00:00 23.6 3 Oeste 10 Sudoeste 0 -- -- 34
2020-10-01 20:00:00 25.7 3 Sudoeste 19 Sudoeste 0 -- -- 28
2020-10-01 19:00:00 28.1 7 Sudoeste 24 Oeste 0 -- -- 24
2020-10-01 18:00:00 29.7 13 Sudoeste 42 Sudoeste 0 -- -- 20
2020-10-01 17:00:00 30.1 15 Sudoeste 35 Sudoeste 0 -- -- 19
2020-10-01 16:00:00 30.2 17 Sudoeste 42 Sudoeste 0 -- -- 19
2020-10-01 15:00:00 29.8 10 Sudoeste 30 Sudoeste 0 -- -- 24
2020-10-01 14:00:00 28.8 10 Oeste 33 Sudoeste 0 -- -- 27
2020-10-01 13:00:00 27.4 16 Sudoeste 38 Sudoeste 0 -- -- 28
2020-10-01 12:00:00 27 10 Sudoeste 30 Oeste 0 -- -- 32
2020-10-01 11:00:00 25.1 12 Sudoeste 30 Sudoeste 0 -- -- 36
2020-10-01 10:00:00 22.2 9 Sudoeste 20 Sudoeste 0 -- -- 43
2020-10-01 09:00:00 19.9 7 Sudoeste 19 Oeste 0 -- -- 47
2020-10-01 08:00:00 17.2 6 Sudoeste 17 Sudoeste 0 -- -- 54
2020-10-01 07:00:00 16.2 3 Oeste 13 Noroeste 0 -- -- 58
2020-10-01 06:00:00 17.9 7 Oeste 13 Oeste 0 -- -- 51
2020-10-01 05:00:00 15.9 7 Oeste 13 Oeste 0 -- -- 60
2020-10-01 04:00:00 14.7 0 Calma 12 Oeste 0 -- -- 86
2020-10-01 03:00:00 15.6 4 Oeste 9 Oeste 0 -- -- 87
2020-10-01 02:00:00 15.7 3 Sudoeste 9 Sudoeste 0 -- -- 87
2020-10-01 01:00:00 16.8 3 Oeste 7 Oeste 0 -- -- 88
2020-10-01 00:00:00 17.3 0 Calma 8 Oeste 0 -- -- 83